Time;durP1;ratioP1;P1;durP2;ratioP2;P2;SDS_P1;SDS_P2;PMS_P1;PMS_P2;Temp;Humidity;BMP_temperature;BMP_pressure;BME280_temperature;BME280_humidity;BME280_pressure;Samples;Min_cycle;Max_cycle;Signal;HPM_P1;HPM_P2
2022/04/08 00:02:21;;;;;;;0.20;0.20;;;;;;;;;;4885031;29;20052;-92
2022/04/08 00:04:47;;;;;;;0.10;0.10;;;;;;;;;;4885385;29;20177;-92
2022/04/08 00:07:13;;;;;;;0.10;0.10;;;;;;;;;;4884445;29;20044;-92
2022/04/08 00:09:39;;;;;;;0.10;0.10;;;;;;;;;;4885256;29;20044;-92
2022/04/08 00:12:05;;;;;;;0.10;0.10;;;;;;;;;;4885270;29;20139;-92
2022/04/08 00:14:32;;;;;;;0.10;0.10;;;;;;;;;;4900732;29;20419;-92
2022/04/08 00:16:58;;;;;;;0.10;0.10;;;;;;;;;;4885167;29;20604;-92
2022/04/08 00:19:24;;;;;;;0.20;0.20;;;;;;;;;;4900542;29;20072;-92
2022/04/08 00:21:50;;;;;;;0.10;0.10;;;;;;;;;;4884930;29;20044;-92
2022/04/08 00:24:17;;;;;;;0.15;0.15;;;;;;;;;;4885169;29;20047;-92
2022/04/08 00:26:45;;;;;;;0.20;0.20;;;;;;;;;;4884872;29;20040;-93
2022/04/08 00:29:12;;;;;;;0.10;0.10;;;;;;;;;;4884977;29;20044;-92
2022/04/08 00:31:38;;;;;;;0.10;0.10;;;;;;;;;;4885222;29;20040;-92
2022/04/08 00:34:04;;;;;;;0.10;0.10;;;;;;;;;;4884854;29;20127;-92
2022/04/08 00:36:30;;;;;;;0.10;0.10;;;;;;;;;;4884468;29;20052;-91
2022/04/08 00:38:57;;;;;;;0.10;0.10;;;;;;;;;;4884659;29;20040;-92
2022/04/08 00:41:23;;;;;;;0.10;0.10;;;;;;;;;;4899553;29;20044;-91
2022/04/08 00:43:49;;;;;;;0.10;0.10;;;;;;;;;;4899595;29;20051;-91
2022/04/08 00:46:15;;;;;;;0.10;0.10;;;;;;;;;;4899589;29;20048;-90
2022/04/08 00:48:41;;;;;;;0.38;0.15;;;;;;;;;;4884058;29;20044;-91
2022/04/08 00:51:07;;;;;;;0.10;0.10;;;;;;;;;;4915325;29;20198;-90
2022/04/08 00:53:34;;;;;;;0.10;0.10;;;;;;;;;;4883860;29;20055;-91
2022/04/08 00:56:00;;;;;;;0.10;0.10;;;;;;;;;;4899338;29;20044;-90
2022/04/08 00:58:26;;;;;;;0.10;0.10;;;;;;;;;;4899594;29;20171;-91
2022/04/08 01:00:52;;;;;;;0.10;0.10;;;;;;;;;;4884212;29;20044;-91
2022/04/08 01:03:18;;;;;;;0.10;0.10;;;;;;;;;;4884158;29;20131;-92
2022/04/08 01:08:44;;;;;;;0.10;0.10;;;;;;;;;;5357183;23;20140;-92
2022/04/08 01:11:10;;;;;;;0.10;0.10;;;;;;;;;;4963702;28;20073;-92
2022/04/08 01:13:36;;;;;;;0.10;0.10;;;;;;;;;;4961822;28;20132;-91
2022/04/08 01:16:05;;;;;;;0.10;0.10;;;;;;;;;;4960005;28;20474;-91
2022/04/08 01:18:31;;;;;;;0.10;0.10;;;;;;;;;;4946676;28;20391;-91
2022/04/08 01:20:57;;;;;;;0.10;0.10;;;;;;;;;;4963714;28;20450;-91
2022/04/08 01:23:23;;;;;;;0.10;0.10;;;;;;;;;;4947728;28;20053;-91
2022/04/08 01:25:49;;;;;;;0.10;0.10;;;;;;;;;;4948066;28;20081;-90
2022/04/08 01:28:15;;;;;;;0.20;0.20;;;;;;;;;;4963537;28;20101;-91
2022/04/08 01:30:41;;;;;;;0.10;0.10;;;;;;;;;;4963916;28;20034;-91
2022/04/08 01:33:07;;;;;;;0.10;0.10;;;;;;;;;;4947712;28;20085;-90
2022/04/08 01:35:33;;;;;;;0.10;0.10;;;;;;;;;;4947745;28;20393;-91
2022/04/08 01:37:58;;;;;;;0.10;0.10;;;;;;;;;;4947483;28;20038;-93
2022/04/08 01:40:25;;;;;;;0.10;0.10;;;;;;;;;;4963440;28;20034;-91
2022/04/08 01:42:50;;;;;;;0.10;0.10;;;;;;;;;;4947137;28;20221;-90
2022/04/08 01:45:18;;;;;;;0.10;0.10;;;;;;;;;;4962844;28;20226;-90
2022/04/08 01:47:46;;;;;;;0.10;0.10;;;;;;;;;;4946888;28;20049;-90
2022/04/08 01:50:18;;;;;;;0.10;0.10;;;;;;;;;;4947327;28;20544;-91
2022/04/08 01:52:44;;;;;;;0.10;0.10;;;;;;;;;;4947454;28;20054;-90
2022/04/08 01:55:10;;;;;;;0.10;0.10;;;;;;;;;;4947100;28;20058;-90
2022/04/08 01:57:36;;;;;;;0.10;0.10;;;;;;;;;;4962941;28;20046;-90
2022/04/08 02:00:03;;;;;;;0.10;0.10;;;;;;;;;;4946863;28;20049;-90
2022/04/08 02:02:29;;;;;;;0.10;0.10;;;;;;;;;;4946854;28;20100;-90
2022/04/08 02:04:55;;;;;;;0.10;0.10;;;;;;;;;;4962470;28;20053;-90
2022/04/08 02:07:21;;;;;;;0.10;0.10;;;;;;;;;;4946262;28;20042;-91
2022/04/08 02:09:48;;;;;;;0.10;0.10;;;;;;;;;;4962654;28;20053;-91
2022/04/08 02:12:14;;;;;;;0.10;0.10;;;;;;;;;;4947182;28;20046;-92
2022/04/08 02:14:40;;;;;;;0.10;0.10;;;;;;;;;;4963125;28;20053;-92
2022/04/08 02:17:06;;;;;;;0.10;0.10;;;;;;;;;;4946758;28;20073;-90
2022/04/08 02:19:32;;;;;;;0.10;0.10;;;;;;;;;;4946706;28;20046;-90
2022/04/08 02:21:59;;;;;;;0.10;0.10;;;;;;;;;;4962222;28;20046;-91
2022/04/08 02:24:25;;;;;;;0.10;0.10;;;;;;;;;;4946744;28;20470;-91
2022/04/08 02:26:51;;;;;;;0.10;0.10;;;;;;;;;;4962690;28;20367;-91
2022/04/08 02:29:17;;;;;;;0.10;0.10;;;;;;;;;;4961781;28;20093;-90
2022/04/08 02:31:43;;;;;;;0.10;0.10;;;;;;;;;;4946525;28;20516;-91
2022/04/08 02:34:09;;;;;;;0.10;0.10;;;;;;;;;;4946733;28;20050;-91
2022/04/08 02:36:36;;;;;;;0.10;0.10;;;;;;;;;;4946705;28;20061;-92
2022/04/08 02:39:02;;;;;;;0.10;0.10;;;;;;;;;;4946655;28;20042;-92
2022/04/08 02:41:28;;;;;;;0.10;0.10;;;;;;;;;;4946377;28;20049;-91
2022/04/08 02:43:56;;;;;;;0.10;0.10;;;;;;;;;;4946578;28;20041;-92
2022/04/08 02:46:22;;;;;;;0.10;0.10;;;;;;;;;;4962242;28;20133;-91
2022/04/08 02:48:49;;;;;;;0.10;0.10;;;;;;;;;;4962468;28;20097;-92
2022/04/08 02:51:15;;;;;;;0.10;0.10;;;;;;;;;;4946184;28;20046;-91
2022/04/08 02:53:41;;;;;;;0.10;0.10;;;;;;;;;;4945753;28;20409;-91
2022/04/08 02:56:07;;;;;;;0.10;0.10;;;;;;;;;;4945828;28;20181;-90
2022/04/08 02:58:33;;;;;;;0.10;0.10;;;;;;;;;;4946004;28;20038;-90
2022/04/08 03:00:59;;;;;;;0.10;0.10;;;;;;;;;;4945988;28;20088;-90
2022/04/08 03:03:26;;;;;;;0.10;0.10;;;;;;;;;;4945232;28;20042;-89
2022/04/08 03:05:53;;;;;;;0.10;0.10;;;;;;;;;;4945358;28;20596;-89
2022/04/08 03:08:18;;;;;;;0.10;0.10;;;;;;;;;;4961363;28;20137;-90
2022/04/08 03:10:44;;;;;;;0.10;0.10;;;;;;;;;;4961564;28;20128;-90
2022/04/08 03:13:11;;;;;;;0.10;0.10;;;;;;;;;;4961427;28;20042;-89
2022/04/08 03:15:38;;;;;;;0.10;0.10;;;;;;;;;;4961403;28;20375;-89
2022/04/08 03:18:05;;;;;;;0.10;0.10;;;;;;;;;;4976977;28;20042;-88
2022/04/08 03:20:31;;;;;;;0.10;0.10;;;;;;;;;;4961587;28;20112;-90
2022/04/08 03:22:57;;;;;;;0.10;0.10;;;;;;;;;;4944899;28;20050;-91
2022/04/08 03:25:23;;;;;;;0.10;0.10;;;;;;;;;;4945213;28;20038;-90
2022/04/08 03:27:49;;;;;;;0.20;0.20;;;;;;;;;;4977224;28;20081;-90
2022/04/08 03:30:15;;;;;;;0.10;0.10;;;;;;;;;;4946110;28;20043;-90
2022/04/08 03:32:41;;;;;;;0.10;0.10;;;;;;;;;;4961945;28;20544;-89
2022/04/08 03:35:07;;;;;;;0.10;0.10;;;;;;;;;;4968395;28;20133;-89
2022/04/08 03:37:33;;;;;;;0.10;0.10;;;;;;;;;;4952406;28;20042;-90
2022/04/08 03:39:59;;;;;;;0.10;0.10;;;;;;;;;;4945951;28;20047;-90
2022/04/08 03:42:25;;;;;;;0.10;0.10;;;;;;;;;;4968326;28;20121;-91
2022/04/08 03:44:51;;;;;;;0.10;0.10;;;;;;;;;;4973358;28;20042;-92
2022/04/08 03:47:19;;;;;;;0.10;0.10;;;;;;;;;;4951296;28;20065;-91
2022/04/08 03:49:45;;;;;;;0.10;0.10;;;;;;;;;;4961836;28;20073;-90
2022/04/08 03:52:12;;;;;;;0.10;0.10;;;;;;;;;;4952725;28;20053;-90
2022/04/08 03:54:38;;;;;;;0.10;0.10;;;;;;;;;;4944946;28;20414;-90
2022/04/08 03:57:04;;;;;;;0.10;0.10;;;;;;;;;;4960953;28;20046;-91
2022/04/08 03:59:30;;;;;;;0.10;0.10;;;;;;;;;;4944765;28;20504;-91
2022/04/08 04:01:57;;;;;;;0.10;0.10;;;;;;;;;;4944583;28;20046;-92
2022/04/08 04:04:23;;;;;;;0.10;0.10;;;;;;;;;;4961343;28;20042;-92
2022/04/08 04:06:50;;;;;;;0.10;0.10;;;;;;;;;;4945024;28;20046;-92
2022/04/08 04:09:16;;;;;;;0.10;0.10;;;;;;;;;;4961118;28;20066;-91
2022/04/08 04:11:42;;;;;;;0.10;0.10;;;;;;;;;;4944777;28;20100;-91
2022/04/08 04:14:08;;;;;;;0.10;0.10;;;;;;;;;;4944686;28;20046;-91
2022/04/08 04:16:34;;;;;;;0.10;0.10;;;;;;;;;;4960732;28;20138;-91
2022/04/08 04:19:01;;;;;;;0.10;0.10;;;;;;;;;;4944539;28;20053;-91
2022/04/08 04:21:27;;;;;;;0.10;0.10;;;;;;;;;;4944620;28;20073;-90
2022/04/08 04:23:53;;;;;;;0.10;0.10;;;;;;;;;;4944504;28;20478;-91
2022/04/08 04:26:18;;;;;;;0.10;0.10;;;;;;;;;;4944496;28;20125;-90
2022/04/08 04:28:44;;;;;;;0.10;0.10;;;;;;;;;;4944736;28;20264;-90
2022/04/08 04:31:10;;;;;;;0.10;0.10;;;;;;;;;;4976247;28;20042;-91
2022/04/08 04:33:36;;;;;;;0.10;0.10;;;;;;;;;;4944179;28;20050;-91
2022/04/08 04:36:02;;;;;;;0.10;0.10;;;;;;;;;;4944351;28;20604;-93
2022/04/08 04:38:28;;;;;;;0.10;0.10;;;;;;;;;;4944459;28;20069;-91
2022/04/08 04:40:54;;;;;;;0.10;0.10;;;;;;;;;;4960628;28;20140;-93
2022/04/08 04:43:20;;;;;;;0.10;0.10;;;;;;;;;;4944253;28;20038;-92
2022/04/08 04:45:46;;;;;;;0.10;0.10;;;;;;;;;;4960130;28;20042;-92
2022/04/08 04:48:12;;;;;;;0.10;0.10;;;;;;;;;;4944048;28;20034;-90
2022/04/08 04:50:39;;;;;;;0.10;0.10;;;;;;;;;;4944099;28;20492;-90
2022/04/08 04:53:05;;;;;;;0.10;0.10;;;;;;;;;;4943733;28;20490;-90
2022/04/08 04:55:32;;;;;;;0.10;0.10;;;;;;;;;;4944393;28;20496;-90
2022/04/08 04:57:58;;;;;;;0.10;0.10;;;;;;;;;;4944085;28;20046;-90
2022/04/08 05:00:24;;;;;;;0.10;0.10;;;;;;;;;;4944306;28;20061;-90
2022/04/08 05:02:50;;;;;;;0.10;0.10;;;;;;;;;;4960583;28;20138;-90
2022/04/08 05:05:16;;;;;;;0.10;0.10;;;;;;;;;;4944150;28;20365;-92
2022/04/08 05:07:42;;;;;;;0.10;0.10;;;;;;;;;;4959449;28;20110;-92
2022/04/08 05:10:08;;;;;;;0.10;0.10;;;;;;;;;;4944381;28;20049;-92
2022/04/08 05:12:37;;;;;;;0.10;0.10;;;;;;;;;;4944148;28;20054;-92
2022/04/08 05:15:06;;;;;;;0.10;0.10;;;;;;;;;;4944307;28;20046;-91
2022/04/08 05:17:35;;;;;;;0.10;0.10;;;;;;;;;;4944162;28;20062;-93
2022/04/08 05:20:01;;;;;;;0.10;0.10;;;;;;;;;;4944328;28;20042;-91
2022/04/08 05:22:28;;;;;;;0.10;0.10;;;;;;;;;;4943873;28;20092;-91
2022/04/08 05:24:54;;;;;;;0.10;0.10;;;;;;;;;;4976099;28;20039;-91
2022/04/08 05:27:20;;;;;;;0.10;0.10;;;;;;;;;;4959692;28;20433;-90
2022/04/08 05:29:45;;;;;;;0.10;0.10;;;;;;;;;;4959707;28;20299;-89
2022/04/08 05:32:11;;;;;;;0.10;0.10;;;;;;;;;;4959521;28;20049;-91
2022/04/08 05:34:37;;;;;;;0.10;0.10;;;;;;;;;;4943923;28;20054;-91
2022/04/08 05:37:03;;;;;;;0.10;0.10;;;;;;;;;;4959795;28;20137;-90
2022/04/08 05:39:29;;;;;;;0.10;0.10;;;;;;;;;;4959722;28;20482;-92
2022/04/08 05:41:55;;;;;;;0.10;0.10;;;;;;;;;;4943862;28;20042;-92
2022/04/08 05:44:21;;;;;;;0.10;0.10;;;;;;;;;;4960123;28;20520;-91
2022/04/08 05:46:47;;;;;;;0.10;0.10;;;;;;;;;;4943752;28;20078;-90
2022/04/08 05:49:13;;;;;;;0.10;0.10;;;;;;;;;;4943800;28;20041;-90
2022/04/08 05:51:39;;;;;;;0.10;0.10;;;;;;;;;;4943473;28;20039;-92
2022/04/08 05:54:05;;;;;;;0.10;0.10;;;;;;;;;;4942880;28;20062;-91
2022/04/08 05:56:31;;;;;;;0.10;0.10;;;;;;;;;;4943605;28;20042;-92
2022/04/08 05:58:57;;;;;;;0.10;0.10;;;;;;;;;;4943722;28;20046;-93
2022/04/08 06:01:23;;;;;;;0.20;0.20;;;;;;;;;;4960118;28;20393;-93
2022/04/08 06:03:49;;;;;;;0.10;0.10;;;;;;;;;;4941884;28;20027;-90
2022/04/08 06:06:15;;;;;;;0.10;0.10;;;;;;;;;;4962789;28;20093;-91
2022/04/08 06:08:41;;;;;;;0.10;0.10;;;;;;;;;;4961941;28;20130;-90
2022/04/08 06:11:07;;;;;;;0.10;0.10;;;;;;;;;;4943395;28;20568;-89
2022/04/08 06:13:33;;;;;;;0.10;0.10;;;;;;;;;;4943601;28;20043;-92
2022/04/08 06:15:59;;;;;;;0.10;0.10;;;;;;;;;;4927675;28;20042;-95
2022/04/08 06:18:25;;;;;;;0.10;0.10;;;;;;;;;;4943363;28;20047;-90
2022/04/08 06:20:51;;;;;;;0.10;0.10;;;;;;;;;;4942863;28;20042;-90
2022/04/08 06:23:17;;;;;;;0.10;0.10;;;;;;;;;;4946317;28;20054;-92
2022/04/08 06:25:43;;;;;;;0.10;0.10;;;;;;;;;;4962490;28;20117;-91
2022/04/08 06:28:09;;;;;;;0.10;0.10;;;;;;;;;;4962458;28;20397;-92
2022/04/08 06:30:36;;;;;;;0.10;0.10;;;;;;;;;;4962488;28;20045;-91
2022/04/08 06:33:08;;;;;;;0.10;0.10;;;;;;;;;;4962046;28;20050;-90
2022/04/08 06:35:34;;;;;;;0.10;0.10;;;;;;;;;;4978544;28;20042;-91
2022/04/08 06:38:01;;;;;;;0.10;0.10;;;;;;;;;;4952935;28;20038;-91
2022/04/08 06:40:27;;;;;;;0.10;0.10;;;;;;;;;;4942879;28;20133;-90
2022/04/08 06:42:55;;;;;;;0.20;0.20;;;;;;;;;;4943039;28;20506;-92
2022/04/08 06:45:23;;;;;;;0.10;0.10;;;;;;;;;;4942755;28;20045;-94
2022/04/08 06:47:49;;;;;;;0.10;0.10;;;;;;;;;;4942608;28;20433;-93
2022/04/08 06:50:15;;;;;;;0.10;0.10;;;;;;;;;;4959293;28;20512;-90
2022/04/08 06:52:41;;;;;;;0.10;0.10;;;;;;;;;;4942111;28;20038;-90
2022/04/08 06:55:08;;;;;;;0.10;0.10;;;;;;;;;;4942511;28;20047;-91
2022/04/08 06:57:34;;;;;;;0.10;0.10;;;;;;;;;;4926670;28;20489;-91
2022/04/08 07:00:00;;;;;;;0.10;0.10;;;;;;;;;;4943063;28;20046;-92
2022/04/08 07:02:25;;;;;;;0.10;0.10;;;;;;;;;;4927222;28;20510;-91
2022/04/08 07:04:53;;;;;;;0.10;0.10;;;;;;;;;;4926631;28;20035;-91
2022/04/08 07:07:19;;;;;;;0.10;0.10;;;;;;;;;;4924492;28;20109;-91
2022/04/08 07:09:45;;;;;;;0.20;0.20;;;;;;;;;;4923134;29;20051;-91
2022/04/08 07:12:11;;;;;;;0.10;0.10;;;;;;;;;;4922863;29;20055;-91
2022/04/08 07:14:37;;;;;;;0.10;0.10;;;;;;;;;;4923027;29;20042;-91
2022/04/08 07:17:03;;;;;;;0.10;0.10;;;;;;;;;;4906757;29;20078;-91
2022/04/08 07:19:29;;;;;;;0.10;0.10;;;;;;;;;;4923054;29;20047;-92
2022/04/08 07:21:56;;;;;;;0.10;0.10;;;;;;;;;;4906938;29;20561;-92
2022/04/08 07:24:22;;;;;;;0.10;0.10;;;;;;;;;;4907585;29;20043;-92
2022/04/08 07:26:48;;;;;;;0.10;0.10;;;;;;;;;;4907126;29;20229;-92
2022/04/08 07:29:14;;;;;;;0.10;0.10;;;;;;;;;;4922977;29;20546;-93
2022/04/08 07:31:40;;;;;;;0.10;0.10;;;;;;;;;;4907473;29;20313;-93
2022/04/08 07:34:06;;;;;;;0.10;0.10;;;;;;;;;;4907981;29;20057;-93
2022/04/08 07:36:32;;;;;;;0.10;0.10;;;;;;;;;;4923263;29;20039;-92
2022/04/08 07:38:57;;;;;;;0.10;0.10;;;;;;;;;;4907170;29;20122;-92
2022/04/08 07:41:23;;;;;;;0.10;0.10;;;;;;;;;;4907063;29;20380;-91
2022/04/08 07:43:50;;;;;;;0.10;0.10;;;;;;;;;;4907389;29;20039;-92
2022/04/08 07:46:16;;;;;;;0.10;0.10;;;;;;;;;;4911982;28;20308;-91
2022/04/08 07:48:42;;;;;;;0.10;0.10;;;;;;;;;;4925591;28;20089;-92
2022/04/08 07:51:08;;;;;;;0.10;0.10;;;;;;;;;;4941446;28;20075;-91
2022/04/08 07:53:34;;;;;;;0.10;0.10;;;;;;;;;;4925829;28;20097;-92
2022/04/08 07:55:59;;;;;;;0.10;0.10;;;;;;;;;;4941591;28;20050;-92
2022/04/08 07:58:25;;;;;;;0.20;0.20;;;;;;;;;;4925907;28;20039;-91
2022/04/08 08:00:53;;;;;;;0.10;0.10;;;;;;;;;;4926029;28;20038;-88
2022/04/08 08:03:20;;;;;;;0.10;0.10;;;;;;;;;;4941515;28;20051;-89
2022/04/08 08:05:46;;;;;;;0.10;0.10;;;;;;;;;;4942433;28;20031;-89
2022/04/08 08:08:12;;;;;;;0.10;0.10;;;;;;;;;;4932542;28;20067;-88
2022/04/08 08:10:39;;;;;;;0.10;0.10;;;;;;;;;;4948355;28;20059;-88
2022/04/08 08:13:06;;;;;;;0.10;0.10;;;;;;;;;;4927596;28;20074;-88
2022/04/08 08:15:32;;;;;;;0.10;0.10;;;;;;;;;;4942316;28;20374;-91
2022/04/08 08:17:58;;;;;;;0.10;0.10;;;;;;;;;;4931819;28;20053;-88
2022/04/08 08:20:25;;;;;;;0.10;0.10;;;;;;;;;;4939584;28;20433;-89
2022/04/08 08:22:51;;;;;;;0.13;0.13;;;;;;;;;;4942023;28;20042;-88
2022/04/08 08:25:17;;;;;;;0.10;0.10;;;;;;;;;;4924953;28;20046;-89
2022/04/08 08:27:48;;;;;;;0.10;0.10;;;;;;;;;;4924239;28;20556;-88
2022/04/08 08:30:14;;;;;;;0.10;0.10;;;;;;;;;;4940740;28;20393;-89
2022/04/08 08:32:41;;;;;;;0.10;0.10;;;;;;;;;;4940477;28;20125;-88
2022/04/08 08:35:07;;;;;;;0.10;0.10;;;;;;;;;;4924706;28;20568;-88
2022/04/08 08:37:33;;;;;;;0.10;0.10;;;;;;;;;;4941095;28;20390;-88
2022/04/08 08:39:59;;;;;;;0.10;0.10;;;;;;;;;;4924610;28;20042;-89
2022/04/08 08:42:25;;;;;;;0.10;0.10;;;;;;;;;;4924601;28;20047;-89
2022/04/08 08:44:52;;;;;;;0.10;0.10;;;;;;;;;;4924722;28;20583;-89
2022/04/08 08:47:18;;;;;;;0.10;0.10;;;;;;;;;;4940331;28;20046;-88
2022/04/08 08:49:46;;;;;;;0.10;0.10;;;;;;;;;;4924529;28;20123;-88
2022/04/08 08:52:12;;;;;;;0.10;0.10;;;;;;;;;;4940522;28;20062;-89
2022/04/08 08:54:39;;;;;;;0.10;0.10;;;;;;;;;;4925099;28;20057;-89
2022/04/08 08:57:05;;;;;;;0.10;0.10;;;;;;;;;;4924882;28;20434;-89
2022/04/08 08:59:31;;;;;;;0.10;0.10;;;;;;;;;;4940513;28;20046;-89
2022/04/08 09:02:01;;;;;;;0.10;0.10;;;;;;;;;;4924312;28;20145;-89
2022/04/08 09:04:27;;;;;;;0.10;0.10;;;;;;;;;;4940572;28;20052;-89
2022/04/08 09:06:53;;;;;;;0.10;0.10;;;;;;;;;;4924814;28;20463;-88
2022/04/08 09:09:32;;;;;;;0.10;0.10;;;;;;;;;;4956613;28;20055;-88
2022/04/08 09:12:14;;;;;;;0.10;0.10;;;;;;;;;;4924687;28;20049;-89
2022/04/08 09:14:44;;;;;;;0.10;0.10;;;;;;;;;;4924792;28;20390;-88
2022/04/08 09:17:10;;;;;;;0.10;0.10;;;;;;;;;;4940370;28;20051;-88
2022/04/08 09:19:36;;;;;;;0.10;0.10;;;;;;;;;;4940431;28;20154;-88
2022/04/08 09:22:02;;;;;;;0.10;0.10;;;;;;;;;;4956124;28;20039;-89
2022/04/08 09:24:28;;;;;;;0.10;0.10;;;;;;;;;;4924797;28;20100;-88
2022/04/08 09:26:54;;;;;;;0.10;0.10;;;;;;;;;;4940138;28;20282;-88
2022/04/08 09:29:21;;;;;;;0.10;0.10;;;;;;;;;;4924379;28;20039;-88
2022/04/08 09:31:55;;;;;;;0.10;0.10;;;;;;;;;;4939980;28;20046;-87
2022/04/08 09:34:22;;;;;;;0.10;0.10;;;;;;;;;;4924467;28;20039;-88
2022/04/08 09:36:48;;;;;;;0.10;0.10;;;;;;;;;;4924510;28;20043;-88
2022/04/08 09:39:14;;;;;;;0.10;0.10;;;;;;;;;;4926622;28;20062;-88
2022/04/08 09:41:42;;;;;;;0.10;0.10;;;;;;;;;;4943617;28;20050;-88
2022/04/08 09:44:08;;;;;;;0.30;0.20;;;;;;;;;;4928266;28;20042;-91
2022/04/08 09:46:34;;;;;;;0.10;0.10;;;;;;;;;;4928278;28;20046;-89
2022/04/08 09:49:00;;;;;;;0.10;0.10;;;;;;;;;;4943823;28;20034;-91
2022/04/08 09:51:27;;;;;;;0.10;0.10;;;;;;;;;;4928002;28;20041;-89
2022/04/08 09:53:57;;;;;;;0.10;0.10;;;;;;;;;;4943556;28;20145;-92
2022/04/08 09:56:23;;;;;;;0.32;0.32;;;;;;;;;;4944800;28;20486;-95
2022/04/08 09:58:56;;;;;;;0.10;0.10;;;;;;;;;;4944746;28;20039;-90
2022/04/08 10:01:24;;;;;;;0.10;0.10;;;;;;;;;;4928224;28;20290;-89
2022/04/08 10:03:50;;;;;;;0.10;0.10;;;;;;;;;;4928321;28;20043;-91
2022/04/08 10:06:16;;;;;;;0.20;0.20;;;;;;;;;;4944019;28;20134;-93
2022/04/08 10:08:43;;;;;;;0.10;0.10;;;;;;;;;;4942888;28;20135;-91
2022/04/08 10:11:18;;;;;;;0.10;0.10;;;;;;;;;;4928721;28;20049;-91
2022/04/08 10:14:03;;;;;;;0.10;0.10;;;;;;;;;;4928695;28;20058;-93
2022/04/08 10:16:32;;;;;;;0.10;0.10;;;;;;;;;;4944433;28;20078;-95
2022/04/08 10:19:04;;;;;;;0.10;0.10;;;;;;;;;;4929252;28;20405;-94
2022/04/08 10:21:40;;;;;;;0.10;0.10;;;;;;;;;;4928913;28;20093;-92
2022/04/08 10:24:29;;;;;;;0.10;0.10;;;;;;;;;;4927888;28;20042;-93
2022/04/08 10:26:58;;;;;;;0.10;0.10;;;;;;;;;;4943371;28;20038;-93
2022/04/08 10:29:25;;;;;;;0.10;0.10;;;;;;;;;;4927523;28;20062;-93
2022/04/08 10:32:02;;;;;;;0.10;0.10;;;;;;;;;;4943311;28;20038;-93
2022/04/08 10:34:32;;;;;;;0.10;0.10;;;;;;;;;;4927756;28;20042;-92
2022/04/08 10:36:58;;;;;;;0.10;0.10;;;;;;;;;;4928084;28;20104;-93
2022/04/08 10:39:24;;;;;;;0.10;0.10;;;;;;;;;;4943630;28;20039;-92
2022/04/08 10:41:54;;;;;;;0.10;0.10;;;;;;;;;;4943258;28;20408;-92
2022/04/08 10:44:31;;;;;;;0.10;0.10;;;;;;;;;;4928082;28;20070;-90
2022/04/08 10:46:57;;;;;;;0.10;0.10;;;;;;;;;;4926983;28;20034;-92
2022/04/08 10:49:23;;;;;;;0.10;0.10;;;;;;;;;;4926863;28;20101;-91
2022/04/08 10:51:50;;;;;;;0.10;0.10;;;;;;;;;;4926380;28;20474;-92
2022/04/08 10:54:16;;;;;;;0.10;0.10;;;;;;;;;;4926916;28;20049;-91
2022/04/08 10:56:42;;;;;;;0.13;0.13;;;;;;;;;;4927647;28;20125;-90
2022/04/08 10:59:08;;;;;;;0.10;0.10;;;;;;;;;;4926882;28;20038;-91
2022/04/08 11:01:44;;;;;;;0.17;0.17;;;;;;;;;;4942363;28;20125;-92
2022/04/08 11:04:10;;;;;;;0.10;0.10;;;;;;;;;;4926891;28;20039;-92
2022/04/08 11:06:37;;;;;;;0.10;0.10;;;;;;;;;;4926749;28;20039;-91
2022/04/08 11:09:10;;;;;;;0.10;0.10;;;;;;;;;;4957460;28;20137;-91
2022/04/08 11:11:37;;;;;;;0.10;0.10;;;;;;;;;;4946289;28;20508;-92
2022/04/08 11:14:04;;;;;;;0.10;0.10;;;;;;;;;;4945715;28;20038;-92
2022/04/08 11:16:33;;;;;;;0.10;0.10;;;;;;;;;;4945797;28;20038;-91
2022/04/08 11:19:00;;;;;;;0.10;0.10;;;;;;;;;;4961483;28;20481;-92
2022/04/08 11:21:28;;;;;;;0.10;0.10;;;;;;;;;;4961423;28;20390;-92
2022/04/08 11:23:58;;;;;;;0.10;0.10;;;;;;;;;;4945362;28;20049;-91
2022/04/08 11:26:24;;;;;;;0.10;0.10;;;;;;;;;;4945652;28;20050;-92
2022/04/08 11:28:50;;;;;;;0.10;0.10;;;;;;;;;;4945617;28;20403;-92
2022/04/08 11:31:19;;;;;;;0.10;0.10;;;;;;;;;;4945036;28;20046;-91
2022/04/08 11:33:46;;;;;;;0.30;0.30;;;;;;;;;;4961021;28;20130;-91
2022/04/08 11:36:13;;;;;;;0.10;0.10;;;;;;;;;;4945245;28;20065;-91
2022/04/08 11:38:38;;;;;;;0.10;0.10;;;;;;;;;;4960801;28;20038;-91
2022/04/08 11:41:04;;;;;;;0.10;0.10;;;;;;;;;;4961033;28;20038;-91
2022/04/08 11:43:30;;;;;;;0.10;0.10;;;;;;;;;;4944796;28;20038;-91
2022/04/08 11:45:56;;;;;;;0.10;0.10;;;;;;;;;;4944880;28;20125;-92
2022/04/08 11:48:23;;;;;;;0.10;0.10;;;;;;;;;;4944748;28;20188;-92
2022/04/08 11:50:49;;;;;;;0.10;0.10;;;;;;;;;;4944979;28;20129;-91
2022/04/08 11:53:18;;;;;;;0.10;0.10;;;;;;;;;;4944878;28;20046;-92
2022/04/08 11:55:54;;;;;;;0.10;0.10;;;;;;;;;;4977426;28;20078;-92
2022/04/08 11:58:20;;;;;;;0.10;0.10;;;;;;;;;;4945248;28;20061;-93
2022/04/08 12:00:48;;;;;;;0.10;0.10;;;;;;;;;;4944650;28;20042;-91
2022/04/08 12:03:24;;;;;;;0.10;0.10;;;;;;;;;;4959598;28;20043;-91
2022/04/08 12:05:50;;;;;;;0.10;0.10;;;;;;;;;;4960764;28;20034;-90
2022/04/08 12:08:17;;;;;;;0.10;0.10;;;;;;;;;;4935509;28;20050;-91
2022/04/08 12:10:44;;;;;;;0.10;0.10;;;;;;;;;;4941614;28;20046;-90
2022/04/08 12:13:17;;;;;;;0.10;0.10;;;;;;;;;;4940624;28;20061;-91
2022/04/08 12:15:44;;;;;;;0.10;0.10;;;;;;;;;;4925442;28;20049;-91
2022/04/08 12:18:11;;;;;;;0.10;0.10;;;;;;;;;;4925673;28;20050;-91
2022/04/08 12:20:40;;;;;;;0.10;0.10;;;;;;;;;;4926587;28;20151;-92
2022/04/08 12:23:06;;;;;;;0.10;0.10;;;;;;;;;;4926273;28;20050;-91
2022/04/08 12:25:32;;;;;;;0.10;0.10;;;;;;;;;;4934643;28;20039;-91
2022/04/08 12:28:00;;;;;;;0.10;0.10;;;;;;;;;;4955783;28;20049;-91
2022/04/08 12:30:27;;;;;;;0.10;0.10;;;;;;;;;;4935717;28;20137;-90
2022/04/08 12:32:53;;;;;;;0.10;0.10;;;;;;;;;;4926114;28;20043;-91
2022/04/08 12:35:20;;;;;;;0.10;0.10;;;;;;;;;;4948513;28;20053;-92
2022/04/08 12:37:46;;;;;;;0.10;0.10;;;;;;;;;;4937484;28;20051;-91
2022/04/08 12:40:12;;;;;;;0.10;0.10;;;;;;;;;;4926951;28;20108;-92
2022/04/08 12:42:41;;;;;;;0.10;0.10;;;;;;;;;;4925430;28;20101;-93
2022/04/08 12:45:07;;;;;;;0.22;0.22;;;;;;;;;;4925468;28;20042;-90
2022/04/08 12:47:33;;;;;;;0.10;0.10;;;;;;;;;;4923664;28;20077;-92
2022/04/08 12:50:00;;;;;;;0.10;0.10;;;;;;;;;;4940912;28;20031;-91
2022/04/08 12:52:28;;;;;;;0.10;0.10;;;;;;;;;;4940574;28;20046;-91
2022/04/08 12:54:54;;;;;;;0.10;0.10;;;;;;;;;;4925104;28;20070;-91
2022/04/08 12:57:20;;;;;;;0.10;0.10;;;;;;;;;;4921458;29;20541;-91
2022/04/08 12:59:47;;;;;;;0.10;0.10;;;;;;;;;;4906234;29;20125;-91
2022/04/08 13:02:13;;;;;;;0.43;0.43;;;;;;;;;;4905540;29;20043;-91
2022/04/08 13:04:39;;;;;;;0.10;0.10;;;;;;;;;;4921294;29;20039;-91
2022/04/08 13:07:07;;;;;;;0.10;0.10;;;;;;;;;;4906446;28;20159;-91
2022/04/08 13:09:34;;;;;;;0.10;0.10;;;;;;;;;;4925479;28;20058;-92
2022/04/08 13:12:00;;;;;;;0.10;0.10;;;;;;;;;;4940420;28;20051;-90
2022/04/08 13:14:26;;;;;;;0.10;0.10;;;;;;;;;;4927268;28;20108;-91
2022/04/08 13:16:52;;;;;;;0.10;0.10;;;;;;;;;;4928517;28;20404;-91
2022/04/08 13:19:18;;;;;;;0.10;0.10;;;;;;;;;;4944488;28;20099;-90
2022/04/08 13:21:44;;;;;;;0.10;0.10;;;;;;;;;;4944143;28;20423;-90
2022/04/08 13:24:10;;;;;;;0.68;0.20;;;;;;;;;;4944771;28;20498;-91
2022/04/08 13:26:36;;;;;;;0.20;0.20;;;;;;;;;;4928660;28;20089;-91
2022/04/08 13:29:04;;;;;;;0.20;0.20;;;;;;;;;;4944621;28;20121;-93
2022/04/08 13:31:30;;;;;;;0.10;0.10;;;;;;;;;;4944735;28;20105;-94
2022/04/08 13:33:56;;;;;;;0.10;0.10;;;;;;;;;;4928879;28;20447;-93
2022/04/08 13:36:22;;;;;;;0.10;0.10;;;;;;;;;;4928770;28;20479;-93
2022/04/08 13:38:48;;;;;;;0.10;0.10;;;;;;;;;;4928628;28;20126;-92
2022/04/08 13:41:14;;;;;;;0.10;0.10;;;;;;;;;;4928561;28;20125;-93
2022/04/08 13:43:40;;;;;;;1.88;0.20;;;;;;;;;;4928404;28;20129;-93
2022/04/08 13:46:07;;;;;;;0.10;0.10;;;;;;;;;;4928035;28;20047;-92
2022/04/08 13:48:33;;;;;;;0.10;0.10;;;;;;;;;;4960182;28;20116;-91
2022/04/08 13:50:59;;;;;;;0.10;0.10;;;;;;;;;;4943771;28;20050;-92
2022/04/08 13:53:25;;;;;;;0.10;0.10;;;;;;;;;;4927785;28;20621;-92
2022/04/08 13:55:51;;;;;;;0.10;0.10;;;;;;;;;;4928113;28;20131;-94
2022/04/08 13:58:17;;;;;;;0.10;0.10;;;;;;;;;;4928396;28;20098;-91
2022/04/08 14:00:43;;;;;;;0.10;0.10;;;;;;;;;;4928297;28;20359;-92
2022/04/08 14:03:09;;;;;;;0.10;0.10;;;;;;;;;;4927686;28;20039;-91
2022/04/08 14:05:35;;;;;;;0.10;0.10;;;;;;;;;;4943578;28;20077;-90
2022/04/08 14:08:01;;;;;;;0.15;0.15;;;;;;;;;;4927147;28;20105;-92
2022/04/08 14:10:27;;;;;;;0.10;0.10;;;;;;;;;;4928271;28;20441;-92
2022/04/08 14:12:53;;;;;;;0.10;0.10;;;;;;;;;;4927355;28;20519;-91
2022/04/08 14:15:19;;;;;;;0.10;0.10;;;;;;;;;;4927550;28;20047;-90
2022/04/08 14:17:45;;;;;;;0.10;0.10;;;;;;;;;;4927938;28;20082;-93
2022/04/08 14:20:11;;;;;;;0.10;0.10;;;;;;;;;;4927887;28;20500;-92
2022/04/08 14:22:38;;;;;;;0.10;0.10;;;;;;;;;;4927548;28;20074;-92
2022/04/08 14:25:05;;;;;;;0.10;0.10;;;;;;;;;;4927111;28;20078;-92
2022/04/08 14:27:31;;;;;;;0.10;0.10;;;;;;;;;;4927944;28;20122;-94
2022/04/08 14:29:58;;;;;;;0.10;0.10;;;;;;;;;;4927872;28;20106;-94
2022/04/08 14:32:23;;;;;;;0.10;0.10;;;;;;;;;;4927903;28;20089;-90
2022/04/08 14:34:49;;;;;;;0.10;0.10;;;;;;;;;;4927937;28;20050;-91
2022/04/08 14:37:15;;;;;;;0.10;0.10;;;;;;;;;;4927515;28;20073;-92
2022/04/08 14:39:42;;;;;;;0.10;0.10;;;;;;;;;;4927444;28;20049;-90
2022/04/08 14:42:08;;;;;;;0.10;0.10;;;;;;;;;;4926720;28;20102;-92
2022/04/08 14:44:34;;;;;;;0.10;0.10;;;;;;;;;;4927204;28;20045;-92